createdAt,value
2023-09-23T00:01:36.020Z,101060.66
2023-09-23T00:04:02.749Z,101072.19
2023-09-23T00:06:29.487Z,101057.53
2023-09-23T00:08:56.072Z,101057.53
2023-09-23T00:11:22.592Z,101065.19
2023-09-23T00:13:49.108Z,101066.41
2023-09-23T00:16:15.942Z,101056.84
2023-09-23T00:18:43.636Z,101057.69
2023-09-23T00:21:10.252Z,101057.69
2023-09-23T00:23:36.845Z,101057.91
2023-09-23T00:26:04.425Z,101062.19
2023-09-23T00:28:30.965Z,101056.63
2023-09-23T00:30:57.729Z,101059.75
2023-09-23T00:33:24.312Z,101057.25
2023-09-23T00:35:50.825Z,101064.28
2023-09-23T00:38:17.465Z,101059.22
2023-09-23T00:40:43.934Z,101060.56
2023-09-23T00:43:10.409Z,101057.03
2023-09-23T00:45:36.985Z,101050.59
2023-09-23T00:48:03.607Z,101054.53
2023-09-23T00:50:30.182Z,101055.03
2023-09-23T00:52:56.874Z,101065.75
2023-09-23T00:55:23.476Z,101052.00
2023-09-23T00:57:49.999Z,101055.13
2023-09-23T01:00:16.673Z,101054.31
2023-09-23T01:02:43.408Z,101049.59
2023-09-23T01:05:10.031Z,101049.38
2023-09-23T01:07:36.701Z,101054.66
2023-09-23T01:10:03.394Z,101055.28
2023-09-23T01:12:30.005Z,101047.16
2023-09-23T01:14:56.636Z,101053.09
2023-09-23T01:17:23.136Z,101051.94
2023-09-23T01:19:49.737Z,101055.91
2023-09-23T01:22:16.349Z,101058.47
2023-09-23T01:24:43.075Z,101054.22
2023-09-23T01:27:09.570Z,101055.34
2023-09-23T01:29:36.173Z,101061.66
2023-09-23T01:32:02.706Z,101056.03
2023-09-23T01:34:29.183Z,101056.66
2023-09-23T01:36:55.727Z,101059.97
2023-09-23T01:39:22.218Z,101051.63
2023-09-23T01:41:48.769Z,101059.75
2023-09-23T01:44:15.363Z,101059.97
2023-09-23T01:46:41.974Z,101050.31
2023-09-23T01:49:08.500Z,101048.91
2023-09-23T01:51:35.121Z,101051.78
2023-09-23T01:54:01.713Z,101060.94
2023-09-23T01:56:28.225Z,101059.19
2023-09-23T01:58:54.813Z,101059.19
2023-09-23T02:01:21.350Z,101057.00
2023-09-23T02:03:47.972Z,101060.25
2023-09-23T02:06:14.637Z,101063.75
2023-09-23T02:08:41.223Z,101076.88
2023-09-23T02:11:07.751Z,101066.84
2023-09-23T02:13:34.413Z,101058.97
2023-09-23T02:16:00.967Z,101062.00
2023-09-23T02:18:27.730Z,101069.34
2023-09-23T02:20:54.560Z,101073.41
2023-09-23T02:23:21.274Z,101076.22
2023-09-23T02:25:47.825Z,101064.34
2023-09-23T02:28:14.447Z,101078.66
2023-09-23T02:30:40.969Z,101072.28
2023-09-23T02:33:07.626Z,101073.41
2023-09-23T02:35:34.249Z,101071.19
2023-09-23T02:38:00.740Z,101072.28
2023-09-23T02:40:27.247Z,101073.34
2023-09-23T02:42:54.008Z,101072.22
2023-09-23T02:45:20.828Z,101077.38
2023-09-23T02:47:47.568Z,101071.75
2023-09-23T02:50:14.788Z,101075.69
2023-09-23T02:52:41.663Z,101072.81
2023-09-23T02:55:08.343Z,101073.41
2023-09-23T02:57:34.960Z,101070.53
2023-09-23T03:00:01.458Z,101081.91
2023-09-23T03:02:30.562Z,101091.44
2023-09-23T03:04:57.422Z,101081.38
2023-09-23T03:07:23.977Z,101085.91
2023-09-23T03:09:50.458Z,101087.59
2023-09-23T03:12:17.006Z,101087.03
2023-09-23T03:14:43.544Z,101088.19
2023-09-23T03:17:10.285Z,101097.13
2023-09-23T03:19:36.873Z,101086.53
2023-09-23T03:22:03.626Z,101083.16
2023-09-23T03:24:30.151Z,101089.31
2023-09-23T03:26:57.305Z,101090.44
2023-09-23T03:29:23.907Z,101099.97
2023-09-23T03:31:50.574Z,101087.69
2023-09-23T03:34:17.187Z,101098.34
2023-09-23T03:36:43.692Z,101091.66
2023-09-23T03:39:10.225Z,101102.28
2023-09-23T03:41:36.834Z,101100.53
2023-09-23T03:44:03.374Z,101105.03
2023-09-23T03:46:29.919Z,101104.13
2023-09-23T03:48:56.568Z,101104.06
2023-09-23T03:51:23.093Z,101100.47
2023-09-23T03:53:49.584Z,101102.13
2023-09-23T03:56:16.174Z,101096.81
2023-09-23T03:58:42.685Z,101103.28
2023-09-23T04:01:09.228Z,101110.47
2023-09-23T04:03:35.816Z,101100.38
2023-09-23T04:06:02.331Z,101107.91
2023-09-23T04:08:28.916Z,101107.06
2023-09-23T04:10:55.853Z,101106.94
2023-09-23T04:13:22.526Z,101104.97
2023-09-23T04:15:49.093Z,101109.16
2023-09-23T04:18:15.668Z,101104.03
2023-09-23T04:20:42.271Z,101103.34
2023-09-23T04:23:08.828Z,101108.59
2023-09-23T04:25:35.450Z,101109.44
2023-09-23T04:28:02.026Z,101107.00
2023-09-23T04:30:29.001Z,101109.97
2023-09-23T04:32:55.637Z,101110.75
2023-09-23T04:35:22.720Z,101110.59
2023-09-23T04:37:49.439Z,101107.72
2023-09-23T04:40:16.521Z,101114.94
2023-09-23T04:42:43.747Z,101113.09
2023-09-23T04:45:10.314Z,101116.91
2023-09-23T04:47:36.856Z,101119.56
2023-09-23T04:50:03.391Z,101121.69
2023-09-23T04:52:30.545Z,101134.50
2023-09-23T04:54:57.127Z,101129.47
2023-09-23T04:57:23.641Z,101139.84
2023-09-23T04:59:50.120Z,101141.13
2023-09-23T05:02:16.844Z,101131.16
2023-09-23T05:04:43.523Z,101134.53
2023-09-23T05:07:10.037Z,101130.53
2023-09-23T05:09:36.587Z,101142.53
2023-09-23T05:12:04.224Z,101138.28
2023-09-23T05:14:30.783Z,101135.34
2023-09-23T05:16:57.368Z,101128.59
2023-09-23T05:19:23.872Z,101131.53
2023-09-23T05:21:51.991Z,101143.78
2023-09-23T05:24:18.621Z,101134.09
2023-09-23T05:26:45.120Z,101141.19
2023-09-23T05:29:11.771Z,101141.59
2023-09-23T05:31:38.360Z,101138.88
2023-09-23T05:34:04.869Z,101134.81
2023-09-23T05:36:31.395Z,101136.78
2023-09-23T05:38:58.002Z,101137.59
2023-09-23T05:41:24.512Z,101135.03
2023-09-23T05:43:51.032Z,101138.56
2023-09-23T05:46:17.711Z,101142.75
2023-09-23T05:48:46.044Z,101135.88
2023-09-23T05:51:14.142Z,101138.66
2023-09-23T05:53:40.691Z,101143.25
2023-09-23T05:56:07.226Z,101143.81
2023-09-23T05:58:33.784Z,101149.19
2023-09-23T06:01:00.430Z,101147.13
2023-09-23T06:03:27.003Z,101143.81
2023-09-23T06:05:53.567Z,101148.50
2023-09-23T06:08:20.284Z,101144.75
2023-09-23T06:10:46.838Z,101146.50
2023-09-23T06:13:13.411Z,101146.66
2023-09-23T06:15:40.185Z,101154.63
2023-09-23T06:18:07.530Z,101149.19
2023-09-23T06:20:34.668Z,101152.28
2023-09-23T06:23:02.202Z,101155.00
2023-09-23T06:25:28.958Z,101156.66
2023-09-23T06:27:55.831Z,101158.97
2023-09-23T06:30:22.612Z,101157.53
2023-09-23T06:32:49.632Z,101159.72
2023-09-23T06:35:16.262Z,101151.69
2023-09-23T06:37:42.885Z,101150.66
2023-09-23T06:40:09.461Z,101150.81
2023-09-23T06:42:36.151Z,101148.94
2023-09-23T06:45:03.197Z,101141.22
2023-09-23T06:47:30.594Z,101154.19
2023-09-23T06:49:57.276Z,101153.25
2023-09-23T06:52:23.893Z,101157.44
2023-09-23T06:54:50.559Z,101144.56
2023-09-23T06:57:18.133Z,101138.06
2023-09-23T06:59:45.492Z,101147.38
2023-09-23T07:02:12.456Z,101143.63
2023-09-23T07:04:39.025Z,101137.88
2023-09-23T07:07:05.619Z,101140.25
2023-09-23T07:09:32.169Z,101148.28
2023-09-23T07:11:58.804Z,101135.88
2023-09-23T07:14:25.486Z,101150.22
2023-09-23T07:16:52.195Z,101129.56
2023-09-23T07:19:18.812Z,101139.59
2023-09-23T07:21:45.404Z,101142.19
2023-09-23T07:24:13.817Z,101152.97
2023-09-23T07:26:40.866Z,101142.22
2023-09-23T07:29:07.494Z,101134.91
2023-09-23T07:31:34.172Z,101149.66
2023-09-23T07:34:00.706Z,101139.88
2023-09-23T07:36:27.341Z,101139.88
2023-09-23T07:38:53.809Z,101131.00
2023-09-23T07:41:20.429Z,101135.88
2023-09-23T07:43:47.217Z,101138.53
2023-09-23T07:46:13.837Z,101138.19
2023-09-23T07:48:40.382Z,101145.59
2023-09-23T07:51:06.975Z,101150.19
2023-09-23T07:53:33.474Z,101142.28
2023-09-23T07:56:00.078Z,101151.03
2023-09-23T07:58:26.700Z,101153.34
2023-09-23T08:00:53.237Z,101135.72
2023-09-23T08:03:19.913Z,101142.69
2023-09-23T08:05:46.609Z,101142.28
2023-09-23T08:08:13.172Z,101132.16
2023-09-23T08:10:39.730Z,101137.03
2023-09-23T08:13:06.311Z,101128.16
2023-09-23T08:15:32.857Z,101121.75
2023-09-23T08:17:59.412Z,101127.75
2023-09-23T08:20:26.083Z,101127.31
2023-09-23T08:22:52.744Z,101124.47
2023-09-23T08:25:19.353Z,101132.16
2023-09-23T08:27:46.264Z,101131.16
2023-09-23T08:30:12.758Z,101132.56
2023-09-23T08:32:39.342Z,101125.09
2023-09-23T08:35:06.195Z,101120.00
2023-09-23T08:37:32.747Z,101118.84
2023-09-23T08:39:59.262Z,101125.44
2023-09-23T08:42:25.952Z,101115.34
2023-09-23T08:44:52.461Z,101109.84
2023-09-23T08:47:19.037Z,101101.38
2023-09-23T08:49:45.842Z,101102.75
2023-09-23T08:52:12.310Z,101093.28
2023-09-23T08:54:38.793Z,101101.00
2023-09-23T08:57:05.397Z,101109.09
2023-09-23T08:59:31.939Z,101104.41
2023-09-23T09:01:58.488Z,101098.56
2023-09-23T09:04:25.178Z,101100.56
2023-09-23T09:06:51.640Z,101101.88
2023-09-23T09:09:18.368Z,101086.78
2023-09-23T09:11:45.079Z,101087.97
2023-09-23T09:14:11.666Z,101090.69
2023-09-23T09:16:38.227Z,101091.81
2023-09-23T09:19:04.885Z,101100.44
2023-09-23T09:21:31.414Z,101091.97
2023-09-23T09:23:57.894Z,101085.41
2023-09-23T09:26:24.555Z,101089.66
2023-09-23T09:28:51.135Z,101090.88
2023-09-23T09:31:17.681Z,101083.13
2023-09-23T09:33:44.464Z,101090.09
2023-09-23T09:36:10.921Z,101093.75
2023-09-23T09:38:37.457Z,101084.63
2023-09-23T09:41:04.223Z,101083.97
2023-09-23T09:43:31.075Z,101080.88
2023-09-23T09:45:57.617Z,101081.72
2023-09-23T09:48:24.255Z,101094.22
2023-09-23T09:50:50.798Z,101089.72
2023-09-23T09:53:17.428Z,101097.19
2023-09-23T09:55:44.086Z,101082.78
2023-09-23T09:58:10.540Z,101079.84
2023-09-23T10:00:37.088Z,101082.19
2023-09-23T10:03:03.896Z,101089.88
2023-09-23T10:05:30.597Z,101082.88
2023-09-23T10:07:57.206Z,101091.66
2023-09-23T10:10:23.828Z,101079.78
2023-09-23T10:12:50.316Z,101078.75
2023-09-23T10:15:16.795Z,101079.97
2023-09-23T10:17:43.359Z,101080.09
2023-09-23T10:20:09.979Z,101088.47
2023-09-23T10:22:36.574Z,101084.34
2023-09-23T10:25:03.174Z,101089.44
2023-09-23T10:27:32.711Z,101082.47
2023-09-23T10:29:59.401Z,101073.22
2023-09-23T10:32:26.163Z,101080.53
2023-09-23T10:34:53.379Z,101069.63
2023-09-23T10:37:20.078Z,101067.03
2023-09-23T10:39:46.676Z,101068.59
2023-09-23T10:42:13.381Z,101072.06
2023-09-23T10:44:40.013Z,101066.94
2023-09-23T10:47:06.722Z,101061.63
2023-09-23T10:49:33.213Z,101069.88
2023-09-23T10:51:59.744Z,101056.09
2023-09-23T10:54:26.360Z,101075.88
2023-09-23T10:56:52.881Z,101061.00
2023-09-23T10:59:19.465Z,101067.34
2023-09-23T11:01:46.155Z,101073.44
2023-09-23T11:04:12.714Z,101059.59
2023-09-23T11:06:39.257Z,101062.06
2023-09-23T11:09:05.818Z,101056.72
2023-09-23T11:11:32.428Z,101053.09
2023-09-23T11:13:58.981Z,101060.00
2023-09-23T11:16:25.844Z,101058.56
2023-09-23T11:18:52.403Z,101052.97
2023-09-23T11:21:19.067Z,101066.50
2023-09-23T11:23:45.624Z,101056.50
2023-09-23T11:26:12.168Z,101048.22
2023-09-23T11:28:38.761Z,101037.28
2023-09-23T11:31:05.319Z,101043.50
2023-09-23T11:33:31.888Z,101039.28
2023-09-23T11:35:58.502Z,101034.47
2023-09-23T11:38:25.394Z,101038.06
2023-09-23T11:40:52.038Z,101032.97
2023-09-23T11:43:18.543Z,101032.97
2023-09-23T11:45:45.302Z,101031.31
2023-09-23T11:48:12.022Z,101027.31
2023-09-23T11:50:38.780Z,101021.06
2023-09-23T11:53:05.453Z,101029.47
2023-09-23T11:55:31.980Z,101014.97
2023-09-23T11:57:58.456Z,101021.94
2023-09-23T12:00:25.020Z,101018.66
2023-09-23T12:02:51.670Z,101020.44
2023-09-23T12:05:18.497Z,101024.59
2023-09-23T12:07:45.336Z,101024.44
2023-09-23T12:10:12.258Z,101023.84
2023-09-23T12:12:38.781Z,101017.63
2023-09-23T12:15:05.347Z,101019.66
2023-09-23T12:17:32.332Z,101022.13
2023-09-23T12:19:59.229Z,101015.34
2023-09-23T12:22:25.958Z,101008.81
2023-09-23T12:24:52.469Z,101009.63
2023-09-23T12:27:18.936Z,101011.56
2023-09-23T12:29:45.665Z,101014.28
2023-09-23T12:32:12.163Z,101010.44
2023-09-23T12:34:38.837Z,101011.13
2023-09-23T12:37:05.626Z,101010.47
2023-09-23T12:39:32.177Z,101008.75
2023-09-23T12:41:58.686Z,101007.22
2023-09-23T12:44:25.304Z,101007.06
2023-09-23T12:46:51.796Z,101000.41
2023-09-23T12:49:18.290Z,101001.91
2023-09-23T12:51:44.857Z,100996.13
2023-09-23T12:54:11.598Z,101000.19
2023-09-23T12:56:38.592Z,100992.81
2023-09-23T12:59:06.163Z,100993.53
2023-09-23T13:01:32.745Z,100999.25
2023-09-23T13:03:59.388Z,100991.03
2023-09-23T13:06:26.102Z,100995.84
2023-09-23T13:08:52.619Z,100997.34
2023-09-23T13:11:19.150Z,100991.50
2023-09-23T13:13:51.181Z,100997.22
2023-09-23T13:16:18.804Z,100996.78
2023-09-23T13:18:45.865Z,101004.47
2023-09-23T13:21:12.692Z,100988.53
2023-09-23T13:23:39.275Z,100992.94
2023-09-23T13:26:06.476Z,101005.19
2023-09-23T13:28:34.002Z,100984.72
2023-09-23T13:31:00.652Z,100986.25
2023-09-23T13:33:27.375Z,100987.00
2023-09-23T13:35:54.037Z,100983.69
2023-09-23T13:38:20.796Z,100983.25
2023-09-23T13:40:47.361Z,100985.19
2023-09-23T13:43:13.959Z,100974.97
2023-09-23T13:45:41.742Z,100983.84
2023-09-23T13:48:08.689Z,100978.88
2023-09-23T13:50:35.870Z,100978.41
2023-09-23T13:53:02.516Z,100979.19
2023-09-23T13:55:29.019Z,100973.41
2023-09-23T13:57:55.612Z,100970.00
2023-09-23T14:00:22.167Z,100983.00
2023-09-23T14:02:48.809Z,100982.91
2023-09-23T14:05:15.459Z,100979.91
2023-09-23T14:07:42.025Z,100976.91
2023-09-23T14:10:20.501Z,100980.03
2023-09-23T14:12:48.264Z,100975.81
2023-09-23T14:15:14.735Z,100974.91
2023-09-23T14:17:41.380Z,100974.00
2023-09-23T14:20:08.074Z,100976.28
2023-09-23T14:22:34.746Z,100968.09
2023-09-23T14:25:01.362Z,100975.28
2023-09-23T14:27:28.445Z,100973.00
2023-09-23T14:29:55.012Z,100966.84
2023-09-23T14:32:21.616Z,100966.28
2023-09-23T14:34:48.233Z,100971.44
2023-09-23T14:37:14.705Z,100970.06
2023-09-23T14:39:41.254Z,100980.06
2023-09-23T14:42:07.839Z,100975.88
2023-09-23T14:44:34.346Z,100978.25
2023-09-23T14:47:00.853Z,100982.94
2023-09-23T14:49:27.523Z,100974.66
2023-09-23T14:51:53.997Z,100974.81
2023-09-23T14:54:20.620Z,100968.44
2023-09-23T14:56:47.176Z,100969.84
2023-09-23T14:59:13.765Z,100977.31
2023-09-23T15:01:40.306Z,100976.66
2023-09-23T15:04:07.025Z,100974.81
2023-09-23T15:06:33.604Z,100976.88
2023-09-23T15:09:01.523Z,100975.84
2023-09-23T15:11:28.816Z,100975.19
2023-09-23T15:13:55.594Z,100971.25
2023-09-23T15:16:22.400Z,100974.13
2023-09-23T15:18:49.227Z,100976.47
2023-09-23T15:21:16.931Z,100971.41
2023-09-23T15:23:43.462Z,100968.66
2023-09-23T15:26:10.106Z,100976.66
2023-09-23T15:28:36.641Z,100973.31
2023-09-23T15:31:03.221Z,100978.88
2023-09-23T15:33:29.880Z,100974.47
2023-09-23T15:35:56.409Z,100970.03
2023-09-23T15:38:22.984Z,100971.31
2023-09-23T15:40:49.697Z,100968.81
2023-09-23T15:43:16.183Z,100971.72
2023-09-23T15:45:42.693Z,100968.56
2023-09-23T15:48:09.548Z,100970.63
2023-09-23T15:50:36.207Z,100977.41
2023-09-23T15:53:02.849Z,100964.56
2023-09-23T15:55:29.841Z,100964.66
2023-09-23T15:57:56.365Z,100968.78
2023-09-23T16:00:22.994Z,100971.75
2023-09-23T16:02:49.721Z,100976.06
2023-09-23T16:05:16.506Z,100978.59
2023-09-23T16:07:43.025Z,100971.69
2023-09-23T16:10:09.611Z,100965.09
2023-09-23T16:12:36.107Z,100974.13
2023-09-23T16:15:02.582Z,100973.34
2023-09-23T16:17:31.484Z,100971.19
2023-09-23T16:19:58.032Z,100962.88
2023-09-23T16:22:24.528Z,100962.31
2023-09-23T16:24:51.101Z,100965.19
2023-09-23T16:27:17.612Z,100968.94
2023-09-23T16:29:44.132Z,100967.34
2023-09-23T16:32:10.895Z,100971.50
2023-09-23T16:34:37.555Z,100966.81
2023-09-23T16:37:04.148Z,100964.81
2023-09-23T16:39:30.754Z,100957.63
2023-09-23T16:41:57.471Z,100961.00
2023-09-23T16:44:24.078Z,100965.38
2023-09-23T16:46:50.770Z,100960.34
2023-09-23T16:49:17.339Z,100975.06
2023-09-23T16:51:43.802Z,100965.97
2023-09-23T16:54:10.489Z,100967.78
2023-09-23T16:56:37.036Z,100971.53
2023-09-23T16:59:03.750Z,100977.09
2023-09-23T17:01:30.343Z,100972.44
2023-09-23T17:03:57.083Z,100967.63
2023-09-23T17:06:25.237Z,100975.78
2023-09-23T17:08:52.489Z,100978.94
2023-09-23T17:11:20.229Z,100980.44
2023-09-23T17:13:47.163Z,100971.41
2023-09-23T17:16:13.946Z,100974.75
2023-09-23T17:18:40.596Z,100974.78
2023-09-23T17:21:07.154Z,100968.13
2023-09-23T17:23:33.880Z,100977.09
2023-09-23T17:26:00.435Z,100969.44
2023-09-23T17:28:27.027Z,100978.78
2023-09-23T17:30:53.689Z,100972.59
2023-09-23T17:33:20.410Z,100974.28
2023-09-23T17:35:47.127Z,100975.44
2023-09-23T17:38:13.824Z,100982.59
2023-09-23T17:40:40.334Z,100977.13
2023-09-23T17:43:06.914Z,100971.97
2023-09-23T17:45:33.463Z,100969.47
2023-09-23T17:48:00.052Z,100968.47
2023-09-23T17:50:26.665Z,100959.50
2023-09-23T17:52:53.831Z,100969.63
2023-09-23T17:55:20.525Z,100970.00
2023-09-23T17:57:47.144Z,100971.81
2023-09-23T18:00:13.873Z,100966.34
2023-09-23T18:02:40.595Z,100960.13
2023-09-23T18:05:07.380Z,100965.78
2023-09-23T18:07:34.096Z,100965.09
2023-09-23T18:10:00.609Z,100970.09
2023-09-23T18:12:27.144Z,100968.13
2023-09-23T18:14:53.694Z,100971.09
2023-09-23T18:17:20.295Z,100962.13
2023-09-23T18:19:46.885Z,100960.47
2023-09-23T18:22:13.510Z,100967.44
2023-09-23T18:24:40.112Z,100967.44
2023-09-23T18:27:06.659Z,100959.94
2023-09-23T18:29:33.310Z,100963.44
2023-09-23T18:31:59.797Z,100965.44
2023-09-23T18:34:26.290Z,100968.09
2023-09-23T18:36:52.982Z,100972.09
2023-09-23T18:39:19.505Z,100970.72
2023-09-23T18:41:46.073Z,100964.78
2023-09-23T18:44:12.755Z,100972.75
2023-09-23T18:46:39.238Z,100960.94
2023-09-23T18:49:05.803Z,100959.13
2023-09-23T18:51:33.043Z,100970.56
2023-09-23T18:53:59.612Z,100965.59
2023-09-23T18:56:26.142Z,100960.63
2023-09-23T18:58:52.738Z,100962.75
2023-09-23T19:01:19.359Z,100964.44
2023-09-23T19:03:46.178Z,100974.06
2023-09-23T19:06:13.027Z,100972.25
2023-09-23T19:08:39.523Z,100972.75
2023-09-23T19:11:06.079Z,100972.41
2023-09-23T19:13:32.783Z,100973.56
2023-09-23T19:15:59.346Z,100975.75
2023-09-23T19:18:25.872Z,100972.09
2023-09-23T19:20:52.538Z,100978.44
2023-09-23T19:23:19.080Z,100975.41
2023-09-23T19:25:45.652Z,100970.94
2023-09-23T19:28:12.275Z,100973.09
2023-09-23T19:30:38.805Z,100976.91
2023-09-23T19:33:07.160Z,100977.38
2023-09-23T19:35:33.818Z,100977.72
2023-09-23T19:38:00.342Z,100976.41
2023-09-23T19:40:26.936Z,100977.44
2023-09-23T19:42:53.646Z,100972.09
2023-09-23T19:45:20.198Z,100973.41
2023-09-23T19:47:46.868Z,100976.41
2023-09-23T19:50:13.572Z,100966.75
2023-09-23T19:52:40.173Z,100969.91
2023-09-23T19:55:06.739Z,100969.09
2023-09-23T19:57:33.345Z,100972.22
2023-09-23T19:59:59.928Z,100971.38
2023-09-23T20:02:26.535Z,100965.75
2023-09-23T20:04:53.314Z,100960.59
2023-09-23T20:07:19.859Z,100965.38
2023-09-23T20:09:46.334Z,100963.84
2023-09-23T20:12:13.000Z,100957.22
2023-09-23T20:14:39.634Z,100960.66
2023-09-23T20:17:06.252Z,100963.97
2023-09-23T20:19:33.420Z,100959.66
2023-09-23T20:22:00.003Z,100964.28
2023-09-23T20:24:26.490Z,100961.25
2023-09-23T20:26:53.098Z,100963.75
2023-09-23T20:29:19.721Z,100958.63
2023-09-23T20:31:46.212Z,100960.22
2023-09-23T20:34:12.780Z,100959.97
2023-09-23T20:36:39.270Z,100956.84
2023-09-23T20:39:05.806Z,100965.75
2023-09-23T20:41:32.477Z,100960.59
2023-09-23T20:43:59.079Z,100958.88
2023-09-23T20:46:25.668Z,100956.53
2023-09-23T20:48:52.290Z,100955.69
2023-09-23T20:51:18.909Z,100951.84
2023-09-23T20:53:45.739Z,100961.09
2023-09-23T20:56:12.684Z,100950.13
2023-09-23T20:58:39.171Z,100945.97
2023-09-23T21:01:05.776Z,100949.09
2023-09-23T21:03:32.496Z,100947.91
2023-09-23T21:05:59.078Z,100941.25
2023-09-23T21:08:25.657Z,100953.13
2023-09-23T21:10:52.276Z,100952.63
2023-09-23T21:13:18.818Z,100950.66
2023-09-23T21:15:45.366Z,100954.94
2023-09-23T21:18:12.081Z,100943.53
2023-09-23T21:20:38.668Z,100957.38
2023-09-23T21:23:05.278Z,100952.56
2023-09-23T21:25:31.948Z,100952.56
2023-09-23T21:27:58.525Z,100958.03
2023-09-23T21:30:25.080Z,100964.91
2023-09-23T21:32:51.715Z,100957.63
2023-09-23T21:35:18.329Z,100954.09
2023-09-23T21:37:44.945Z,100953.28
2023-09-23T21:40:11.650Z,100960.53
2023-09-23T21:42:38.186Z,100955.94
2023-09-23T21:45:04.655Z,100956.41
2023-09-23T21:47:32.368Z,100953.06
2023-09-23T21:49:58.970Z,100948.78
2023-09-23T21:52:25.563Z,100952.25
2023-09-23T21:54:52.163Z,100949.53
2023-09-23T21:57:18.753Z,100954.03
2023-09-23T21:59:45.375Z,100947.22
2023-09-23T22:02:11.999Z,100945.66
2023-09-23T22:04:38.745Z,100949.75
2023-09-23T22:07:05.345Z,100951.41
2023-09-23T22:09:31.960Z,100936.81
2023-09-23T22:11:58.480Z,100948.91
2023-09-23T22:14:25.076Z,100946.44
2023-09-23T22:16:51.680Z,100951.41
2023-09-23T22:19:18.197Z,100936.19
2023-09-23T22:21:44.727Z,100951.41
2023-09-23T22:24:11.292Z,100949.75
2023-09-23T22:26:37.985Z,100952.88
2023-09-23T22:29:04.685Z,100946.94
2023-09-23T22:31:31.258Z,100950.38
2023-09-23T22:33:57.915Z,100951.00
2023-09-23T22:36:24.550Z,100951.53
2023-09-23T22:38:51.382Z,100953.97
2023-09-23T22:41:17.951Z,100960.63
2023-09-23T22:43:44.591Z,100956.13
2023-09-23T22:46:11.280Z,100946.00
2023-09-23T22:48:37.862Z,100953.19
2023-09-23T22:51:04.396Z,100958.19
2023-09-23T22:53:31.035Z,100958.50
2023-09-23T22:55:57.547Z,100945.38
2023-09-23T22:58:24.039Z,100955.59
2023-09-23T23:00:50.659Z,100944.50
2023-09-23T23:03:17.211Z,100953.53
2023-09-23T23:05:43.950Z,100962.31
2023-09-23T23:08:10.710Z,100963.75
2023-09-23T23:10:37.205Z,100953.25
2023-09-23T23:13:03.688Z,100961.06
2023-09-23T23:15:30.307Z,100962.84
2023-09-23T23:17:56.919Z,100967.53
2023-09-23T23:20:23.871Z,100959.00
2023-09-23T23:22:51.408Z,100952.56
2023-09-23T23:25:17.925Z,100966.09
2023-09-23T23:27:46.115Z,100954.00
2023-09-23T23:30:12.689Z,100943.19
2023-09-23T23:32:39.196Z,100954.53
2023-09-23T23:35:05.812Z,100957.16
2023-09-23T23:37:32.591Z,100948.38
2023-09-23T23:39:59.052Z,100947.97
2023-09-23T23:42:25.572Z,100947.16
2023-09-23T23:44:52.180Z,100955.38
2023-09-23T23:47:19.346Z,100955.47
2023-09-23T23:49:45.900Z,100956.09
2023-09-23T23:52:12.468Z,100955.28
2023-09-23T23:54:38.996Z,100954.84
2023-09-23T23:57:05.791Z,100959.94
2023-09-23T23:59:32.460Z,100963.06
